sensor_id;sensor_type;location;lat;lon;timestamp;P1;durP1;ratioP1;P2;durP2;ratioP2
77168;SDS011;66281;45.114;20.730;2023-09-30T00:04:48;13.77;;;7.73;;
77168;SDS011;66281;45.114;20.730;2023-09-30T00:14:50;9.07;;;6.47;;
77168;SDS011;66281;45.114;20.730;2023-09-30T00:24:51;11.97;;;7.40;;
77168;SDS011;66281;45.114;20.730;2023-09-30T00:34:52;11.87;;;7.50;;
77168;SDS011;66281;45.114;20.730;2023-09-30T00:44:54;12.93;;;7.97;;
77168;SDS011;66281;45.114;20.730;2023-09-30T00:54:56;13.80;;;9.20;;
77168;SDS011;66281;45.114;20.730;2023-09-30T01:04:57;12.23;;;9.73;;
77168;SDS011;66281;45.114;20.730;2023-09-30T01:14:59;15.68;;;10.18;;
77168;SDS011;66281;45.114;20.730;2023-09-30T01:25:01;15.57;;;10.37;;
77168;SDS011;66281;45.114;20.730;2023-09-30T01:35:02;16.73;;;10.23;;
77168;SDS011;66281;45.114;20.730;2023-09-30T01:45:03;17.15;;;11.00;;
77168;SDS011;66281;45.114;20.730;2023-09-30T01:55:06;15.17;;;10.80;;
77168;SDS011;66281;45.114;20.730;2023-09-30T02:05:07;13.00;;;10.23;;
77168;SDS011;66281;45.114;20.730;2023-09-30T02:15:09;17.55;;;12.15;;
77168;SDS011;66281;45.114;20.730;2023-09-30T02:25:11;14.50;;;12.30;;
77168;SDS011;66281;45.114;20.730;2023-09-30T02:35:13;22.43;;;13.50;;
77168;SDS011;66281;45.114;20.730;2023-09-30T02:45:17;19.37;;;13.67;;
77168;SDS011;66281;45.114;20.730;2023-09-30T02:55:19;22.87;;;13.73;;
77168;SDS011;66281;45.114;20.730;2023-09-30T03:05:21;19.75;;;13.00;;
77168;SDS011;66281;45.114;20.730;2023-09-30T03:15:23;17.90;;;12.33;;
77168;SDS011;66281;45.114;20.730;2023-09-30T03:25:24;18.70;;;12.83;;
77168;SDS011;66281;45.114;20.730;2023-09-30T03:35:25;24.15;;;13.55;;
77168;SDS011;66281;45.114;20.730;2023-09-30T03:45:27;17.97;;;13.57;;
77168;SDS011;66281;45.114;20.730;2023-09-30T03:55:28;19.57;;;14.00;;
77168;SDS011;66281;45.114;20.730;2023-09-30T04:05:31;20.10;;;13.30;;
77168;SDS011;66281;45.114;20.730;2023-09-30T04:15:37;17.60;;;12.20;;
77168;SDS011;66281;45.114;20.730;2023-09-30T04:25:39;16.23;;;12.20;;
77168;SDS011;66281;45.114;20.730;2023-09-30T04:35:41;20.63;;;13.32;;
77168;SDS011;66281;45.114;20.730;2023-09-30T04:45:42;15.43;;;11.37;;
77168;SDS011;66281;45.114;20.730;2023-09-30T04:55:46;17.70;;;12.17;;
77168;SDS011;66281;45.114;20.730;2023-09-30T05:05:51;17.10;;;10.57;;
77168;SDS011;66281;45.114;20.730;2023-09-30T05:15:56;14.87;;;11.00;;
77168;SDS011;66281;45.114;20.730;2023-09-30T05:25:57;22.80;;;11.67;;
77168;SDS011;66281;45.114;20.730;2023-09-30T05:35:59;15.63;;;11.43;;
77168;SDS011;66281;45.114;20.730;2023-09-30T05:46:04;14.57;;;12.07;;
77168;SDS011;66281;45.114;20.730;2023-09-30T05:56:07;19.83;;;14.23;;
77168;SDS011;66281;45.114;20.730;2023-09-30T06:06:12;18.70;;;14.60;;
77168;SDS011;66281;45.114;20.730;2023-09-30T06:16:16;24.43;;;16.53;;
77168;SDS011;66281;45.114;20.730;2023-09-30T06:26:18;33.47;;;20.50;;
77168;SDS011;66281;45.114;20.730;2023-09-30T06:36:21;23.70;;;17.70;;
77168;SDS011;66281;45.114;20.730;2023-09-30T06:46:23;25.97;;;18.73;;
77168;SDS011;66281;45.114;20.730;2023-09-30T06:56:25;27.88;;;18.38;;
77168;SDS011;66281;45.114;20.730;2023-09-30T07:06:26;21.30;;;16.37;;
77168;SDS011;66281;45.114;20.730;2023-09-30T07:16:27;28.43;;;16.03;;
77168;SDS011;66281;45.114;20.730;2023-09-30T07:26:29;21.83;;;14.93;;
77168;SDS011;66281;45.114;20.730;2023-09-30T07:36:30;18.53;;;13.13;;
77168;SDS011;66281;45.114;20.730;2023-09-30T07:46:32;16.20;;;11.45;;
77168;SDS011;66281;45.114;20.730;2023-09-30T07:56:33;18.10;;;12.10;;
77168;SDS011;66281;45.114;20.730;2023-09-30T08:06:35;16.30;;;11.90;;
77168;SDS011;66281;45.114;20.730;2023-09-30T08:16:36;12.43;;;10.98;;
77168;SDS011;66281;45.114;20.730;2023-09-30T08:26:38;14.37;;;10.00;;
77168;SDS011;66281;45.114;20.730;2023-09-30T08:36:40;11.53;;;9.33;;
77168;SDS011;66281;45.114;20.730;2023-09-30T08:46:43;10.83;;;8.07;;
77168;SDS011;66281;45.114;20.730;2023-09-30T08:56:44;10.37;;;6.90;;
77168;SDS011;66281;45.114;20.730;2023-09-30T09:06:49;9.52;;;7.38;;
77168;SDS011;66281;45.114;20.730;2023-09-30T09:16:54;11.67;;;7.07;;
77168;SDS011;66281;45.114;20.730;2023-09-30T09:27:09;12.07;;;6.20;;
77168;SDS011;66281;45.114;20.730;2023-09-30T09:37:17;8.10;;;5.50;;
77168;SDS011;66281;45.114;20.730;2023-09-30T09:47:23;10.73;;;6.13;;
77168;SDS011;66281;45.114;20.730;2023-09-30T09:57:24;8.00;;;6.07;;
77168;SDS011;66281;45.114;20.730;2023-09-30T10:07:29;8.13;;;5.50;;
77168;SDS011;66281;45.114;20.730;2023-09-30T10:28:11;7.57;;;5.10;;
77168;SDS011;66281;45.114;20.730;2023-09-30T10:38:39;9.27;;;5.97;;
77168;SDS011;66281;45.114;20.730;2023-09-30T10:48:41;11.00;;;5.93;;
77168;SDS011;66281;45.114;20.730;2023-09-30T10:59:00;10.65;;;5.80;;
77168;SDS011;66281;45.114;20.730;2023-09-30T11:09:05;10.03;;;6.57;;
77168;SDS011;66281;45.114;20.730;2023-09-30T11:19:12;8.67;;;5.27;;
77168;SDS011;66281;45.114;20.730;2023-09-30T11:29:15;7.00;;;6.13;;
77168;SDS011;66281;45.114;20.730;2023-09-30T11:39:27;7.90;;;6.00;;
77168;SDS011;66281;45.114;20.730;2023-09-30T11:49:36;11.45;;;6.05;;
77168;SDS011;66281;45.114;20.730;2023-09-30T11:59:39;7.97;;;5.53;;
77168;SDS011;66281;45.114;20.730;2023-09-30T12:09:41;7.27;;;5.03;;
77168;SDS011;66281;45.114;20.730;2023-09-30T12:19:43;8.07;;;6.05;;
77168;SDS011;66281;45.114;20.730;2023-09-30T12:29:44;6.80;;;5.57;;
77168;SDS011;66281;45.114;20.730;2023-09-30T12:39:46;9.43;;;5.83;;
77168;SDS011;66281;45.114;20.730;2023-09-30T12:49:48;9.40;;;5.97;;
77168;SDS011;66281;45.114;20.730;2023-09-30T12:59:50;9.50;;;5.37;;
77168;SDS011;66281;45.114;20.730;2023-09-30T13:09:52;10.95;;;5.63;;
77168;SDS011;66281;45.114;20.730;2023-09-30T13:19:54;9.87;;;5.53;;
77168;SDS011;66281;45.114;20.730;2023-09-30T13:29:56;7.17;;;4.93;;
77168;SDS011;66281;45.114;20.730;2023-09-30T13:39:57;10.65;;;5.00;;
77168;SDS011;66281;45.114;20.730;2023-09-30T13:49:59;6.00;;;4.60;;
77168;SDS011;66281;45.114;20.730;2023-09-30T14:00:02;9.17;;;5.40;;
77168;SDS011;66281;45.114;20.730;2023-09-30T14:10:07;9.03;;;5.30;;
77168;SDS011;66281;45.114;20.730;2023-09-30T14:20:11;11.63;;;5.23;;
77168;SDS011;66281;45.114;20.730;2023-09-30T14:30:13;7.72;;;4.93;;
77168;SDS011;66281;45.114;20.730;2023-09-30T14:40:15;9.27;;;4.73;;
77168;SDS011;66281;45.114;20.730;2023-09-30T14:50:17;8.20;;;4.93;;
77168;SDS011;66281;45.114;20.730;2023-09-30T15:00:18;8.40;;;4.47;;
77168;SDS011;66281;45.114;20.730;2023-09-30T15:10:22;8.00;;;4.80;;
77168;SDS011;66281;45.114;20.730;2023-09-30T15:20:24;8.93;;;4.63;;
77168;SDS011;66281;45.114;20.730;2023-09-30T15:30:26;11.60;;;4.83;;
77168;SDS011;66281;45.114;20.730;2023-09-30T15:40:27;10.37;;;5.50;;
77168;SDS011;66281;45.114;20.730;2023-09-30T15:50:28;16.20;;;6.20;;
77168;SDS011;66281;45.114;20.730;2023-09-30T16:00:29;14.40;;;4.80;;
77168;SDS011;66281;45.114;20.730;2023-09-30T16:10:32;13.13;;;6.27;;
77168;SDS011;66281;45.114;20.730;2023-09-30T16:20:33;19.63;;;5.45;;
77168;SDS011;66281;45.114;20.730;2023-09-30T16:30:35;28.27;;;7.07;;
77168;SDS011;66281;45.114;20.730;2023-09-30T16:40:36;18.57;;;6.40;;
77168;SDS011;66281;45.114;20.730;2023-09-30T16:50:41;23.27;;;6.70;;
77168;SDS011;66281;45.114;20.730;2023-09-30T17:00:43;18.40;;;6.33;;
77168;SDS011;66281;45.114;20.730;2023-09-30T17:10:49;17.85;;;5.43;;
77168;SDS011;66281;45.114;20.730;2023-09-30T17:20:56;17.30;;;4.87;;
77168;SDS011;66281;45.114;20.730;2023-09-30T17:31:05;11.97;;;5.37;;
77168;SDS011;66281;45.114;20.730;2023-09-30T17:41:12;14.73;;;5.60;;
77168;SDS011;66281;45.114;20.730;2023-09-30T17:51:18;11.27;;;4.90;;
77168;SDS011;66281;45.114;20.730;2023-09-30T18:01:27;13.73;;;5.03;;
77168;SDS011;66281;45.114;20.730;2023-09-30T18:11:35;6.73;;;5.20;;
77168;SDS011;66281;45.114;20.730;2023-09-30T18:21:42;13.43;;;6.50;;
77168;SDS011;66281;45.114;20.730;2023-09-30T18:31:48;9.68;;;7.53;;
77168;SDS011;66281;45.114;20.730;2023-09-30T18:41:55;17.50;;;7.80;;
77168;SDS011;66281;45.114;20.730;2023-09-30T18:52:01;17.03;;;8.33;;
77168;SDS011;66281;45.114;20.730;2023-09-30T19:02:08;11.88;;;8.70;;
77168;SDS011;66281;45.114;20.730;2023-09-30T19:12:14;13.80;;;8.60;;
77168;SDS011;66281;45.114;20.730;2023-09-30T19:22:20;12.83;;;8.20;;
77168;SDS011;66281;45.114;20.730;2023-09-30T19:32:26;11.90;;;8.32;;
77168;SDS011;66281;45.114;20.730;2023-09-30T19:42:33;11.83;;;7.37;;
77168;SDS011;66281;45.114;20.730;2023-09-30T19:52:41;12.00;;;7.40;;
77168;SDS011;66281;45.114;20.730;2023-09-30T20:02:47;10.80;;;7.15;;
77168;SDS011;66281;45.114;20.730;2023-09-30T20:12:53;9.27;;;6.30;;
77168;SDS011;66281;45.114;20.730;2023-09-30T20:22:59;10.27;;;6.90;;
77168;SDS011;66281;45.114;20.730;2023-09-30T20:33:06;10.53;;;6.90;;
77168;SDS011;66281;45.114;20.730;2023-09-30T20:43:14;15.40;;;8.23;;
77168;SDS011;66281;45.114;20.730;2023-09-30T20:53:21;13.90;;;7.55;;
77168;SDS011;66281;45.114;20.730;2023-09-30T21:03:27;11.00;;;7.43;;
77168;SDS011;66281;45.114;20.730;2023-09-30T21:13:33;10.80;;;6.57;;
77168;SDS011;66281;45.114;20.730;2023-09-30T21:23:40;15.50;;;8.25;;
77168;SDS011;66281;45.114;20.730;2023-09-30T21:33:46;12.47;;;8.13;;
77168;SDS011;66281;45.114;20.730;2023-09-30T21:43:52;14.23;;;8.70;;
77168;SDS011;66281;45.114;20.730;2023-09-30T21:53:59;14.90;;;8.03;;
77168;SDS011;66281;45.114;20.730;2023-09-30T22:04:05;17.87;;;9.73;;
77168;SDS011;66281;45.114;20.730;2023-09-30T22:14:12;20.70;;;8.77;;
77168;SDS011;66281;45.114;20.730;2023-09-30T22:24:18;14.47;;;8.40;;
77168;SDS011;66281;45.114;20.730;2023-09-30T22:34:24;14.70;;;9.27;;
77168;SDS011;66281;45.114;20.730;2023-09-30T22:44:30;16.98;;;8.60;;
77168;SDS011;66281;45.114;20.730;2023-09-30T22:54:37;16.97;;;8.47;;
77168;SDS011;66281;45.114;20.730;2023-09-30T23:04:43;19.73;;;8.63;;
77168;SDS011;66281;45.114;20.730;2023-09-30T23:14:50;15.57;;;7.77;;
77168;SDS011;66281;45.114;20.730;2023-09-30T23:24:57;20.60;;;9.50;;
77168;SDS011;66281;45.114;20.730;2023-09-30T23:35:04;19.35;;;9.35;;
77168;SDS011;66281;45.114;20.730;2023-09-30T23:45:14;18.63;;;9.03;;
77168;SDS011;66281;45.114;20.730;2023-09-30T23:55:24;18.47;;;9.13;;
